North Ogden, Utah
Current Conditions -  °F | °C
As of 9:53 AM on Thursday 30 Oct 2014 (Local Time) from KOGD Reporting Station
Clear Clear  
Wind Chill: 51°   Ceiling: Unl
Heat Index: 51°   Visibility: 10mi
Dew Point: 29°   Wind: 5mph
Humidity: 43%   Direction: 270°W
Pressure: 30.27"   Gusts: NA
Location:  41.3178°N, 111.954°W
Report Text: KOGD 301553Z 27004KT 10SM CLR 11/M02 A3027 RMK AO2 SLP230 T01061017
Loading
Personal Weather Stations






























Interactive Weather Map
Tropical Storm Tracking
New forecast layout! Learn more

10-Day Weather Forecast

Advertisements
Track Severe Weather on mobile